METAR v bližini

 

LJLJ - Ljubljana/Brnik, Slovenia
Oddaljenost od postaje: W 41km
Podatki zajeti: 01/10/2020 21:00
Pretežno oblačno
Pretežno oblačno
 Veter iz smeri spremenljiv
Veter: spremenljiv 4 km/h
Temperatura: 11°C
Rosišče: 11°C
Vlažnost: 100%
Tlak: 1007 hPa
Oblačnost: Pretežno oblačno
Vidljivost: 10 km
Podrobnosti o oblakih: Rahlo oblačno 1006 m
Pretežno oblačno 6706 m
2020/10/01 19:00 LJLJ 011900Z VRB02KT 9999 FEW033 BKN220 11/11 Q1007 NOSIG
LJMB - Maribor, Slovenia
Oddaljenost od postaje: NE 63km
Podatki zajeti: 01/10/2020 21:00
Jasno
Jasno
 Veter iz smeri WSW
Veter: WSW 6 km/h
Temperatura: 14°C
Rosišče: 10°C
Vlažnost: 77%
Tlak: 1004 hPa
Stanje: Jasno
Vidljivost: večja od 10 km
2020/10/01 19:00 LJMB 011900Z 24003KT 200V290 CAVOK 14/10 Q1004
 
LJPZ - Portoroz, Slovenia
Oddaljenost od postaje: SW 130km
Podatki zajeti: 01/10/2020 21:00
Pretežno oblačno
Pretežno oblačno
 Veter iz smeri ESE
Veter: ESE 7 km/h
Temperatura: 17°C
Rosišče: 15°C
Vlažnost: 88%
Tlak: 1007 hPa
Oblačnost: Pretežno oblačno
Vidljivost: 10 km
Podrobnosti o oblakih: Rahlo oblačno 1524 m
Delno oblačno 2134 m
Pretežno oblačno 2743 m
2020/10/01 19:00 LJPZ 011900Z 12004KT 9999 FEW050 SCT070 BKN090 17/15 Q1007
LJCE - Cerklje, Slovenia
Oddaljenost od postaje: ESE 49km
Podatki zajeti: 01/10/2020 21:00
Jasno
Jasno
 Veter iz smeri SSW
Veter: SSW 9 km/h
Temperatura: 15°C
Rosišče: 11°C
Vlažnost: 77%
Tlak: 1006 hPa
Stanje: Jasno
Vidljivost: večja od 10 km
2020/10/01 19:00 LJCE 011900Z 21005KT 180V240 CAVOK 15/11 Q1006 RMK BLU
 
LDZA - Zagreb/Pleso, Croatia
Oddaljenost od postaje: ESE 96km
Podatki zajeti: 01/10/2020 21:00
Jasno
Jasno
 Veter iz smeri SW
Veter: SW 19 km/h
Temperatura: 16°C
Rosišče: 12°C
Vlažnost: 77%
Tlak: 1005 hPa
Stanje: Jasno
Vidljivost: večja od 10 km
2020/10/01 19:00 LDZA 011900Z 22010KT CAVOK 16/12 Q1005 NOSIG
LDRI - Rijeka/Omisalj, Croatia
Oddaljenost od postaje: SSW 109km
Podatki zajeti: 01/10/2020 21:00
Pretežno oblačno
Pretežno oblačno
 Veter iz smeri ESE
Veter: ESE 7 km/h
Temperatura: 17°C
Rosišče: 15°C
Vlažnost: 88%
Tlak: 1008 hPa
Oblačnost: Pretežno oblačno
Vidljivost: 10 km
Podrobnosti o oblakih: Rahlo oblačno 701 m
Pretežno oblačno 1219 m
2020/10/01 19:00 LDRI 011900Z 12004KT 9999 FEW023 BKN040 17/15 Q1008
 
LDPL - Pula, Croatia
Oddaljenost od postaje: SSW 164km
Podatki zajeti: 01/10/2020 21:00
Delno oblačno
Delno oblačno
 Veter iz smeri spremenljiv
Veter: spremenljiv 4 km/h
Temperatura: 17°C
Rosišče: 15°C
Vlažnost: 88%
Tlak: 1007 hPa
Oblačnost: Delno oblačno
Vidljivost: 10 km
Podrobnosti o oblakih: Delno oblačno 1433 m
2020/10/01 19:00 LDPL 011900Z VRB02KT 9999 SCT047 17/15 Q1007 NOSIG
LOWK - Klagenfurt(Civ/M, Austria
Oddaljenost od postaje: NW 76km
Podatki zajeti: 01/10/2020 20:50
Delno oblačno
Delno oblačno
 Veter iz smeri spremenljiv
Veter: spremenljiv 4 km/h
Temperatura: 13°C
Rosišče: 10°C
Vlažnost: 82%
Tlak: 1006 hPa
Oblačnost: Delno oblačno
Vidljivost: 10 km
2020/10/01 18:50 LOWK 011850Z AUTO VRB02KT 9999 NSC 13/10 Q1006 NOSIG
 
LOWG - Graz (mil/Civ), Austria
Oddaljenost od postaje: NNE 100km
Podatki zajeti: 01/10/2020 20:50
Jasno
Jasno
 Veter iz smeri spremenljiv
Veter: spremenljiv 4 km/h
Temperatura: 14°C
Rosišče: 10°C
Vlažnost: 77%
Tlak: 1005 hPa
Stanje: Jasno
Vidljivost: večja od 10 km
2020/10/01 18:50 LOWG 011850Z VRB02KT CAVOK 14/10 Q1005 NOSIG
LOAN - Wr.neustadt East, Austria
Oddaljenost od postaje: NNE 212km
Podatki zajeti: 01/10/2020 19:00
Ni posodobljen
Delno oblačno
Delno oblačno
 Veter iz smeri ESE
Veter: ESE 7 km/h
Oblačnost: Delno oblačno
Podrobnosti o oblakih: Delno oblačno 9144 m
2020/10/01 17:00 LOAN 011700Z 11004KT 40KM SCT300CI
 
LIPQ - Ronchi Legionari, Italy
Oddaljenost od postaje: SW 35km
Podatki zajeti: 01/10/2020 20:50
Pretežno oblačno
Pretežno oblačno
 Veter iz smeri ESE
Veter: ESE 9 km/h
Temperatura: 17°C
Rosišče: 15°C
Vlažnost: 88%
Tlak: 1006 hPa
Oblačnost: Pretežno oblačno
Vidljivost: 10 km
Podrobnosti o oblakih: Pretežno oblačno 1433 m
Pretežno oblačno 2530 m
2020/10/01 18:50 LIPQ 011850Z AUTO 11005KT 9999 BKN047/// BKN083/// 17/15 Q1006
LIVT - Trieste, Italy
Oddaljenost od postaje: WSW 109km
Podatki zajeti: 01/10/2020 19:55
Ni posodobljen
Pretežno oblačno
Pretežno oblačno
 Veter iz smeri spremenljiv
Veter: spremenljiv 0 km/h
Temperatura: 17°C
Rosišče: 15°C
Vlažnost: 88%
Tlak: 1006 hPa
Oblačnost: Pretežno oblačno
Vidljivost: 10 km
Podrobnosti o oblakih: Pretežno oblačno 1219 m
2020/10/01 17:55 LIVT 011755Z /////KT 9999 BKN040 17/15 Q1006 RMK OVC QUK / QUL / VIS MAR 10 KM VIS MIN 9999
 
LIVO - Tarvisio, Italy
Oddaljenost od postaje: NNW 49km
Podatki zajeti: 01/10/2020 19:55
Ni posodobljen
Pretežno oblačno
Pretežno oblačno
 Veter iz smeri WNW
Veter: WNW 6 km/h
Temperatura: 10°C
Rosišče: 9°C
Vlažnost: 94%
Tlak: 1006 hPa
Oblačnost: Pretežno oblačno
Vidljivost: 10 km
Podrobnosti o oblakih: Pretežno oblačno 914 m
2020/10/01 17:55 LIVO 011755Z 30003KT 9999 BKN030 10/09 Q1006 RMK BKN VIS MIN 9999
LIPZ - Venezia/Tessera, Italy
Oddaljenost od postaje: WSW 217km
Podatki zajeti: 01/10/2020 20:50
Pretežno oblačno
Pretežno oblačno
 Veter iz smeri ENE
Veter: ENE 7 km/h
Temperatura: 18°C
Rosišče: 16°C
Vlažnost: 88%
Tlak: 1006 hPa
Oblačnost: Pretežno oblačno
Vidljivost: 10 km
Podrobnosti o oblakih: Pretežno oblačno 2134 m
2020/10/01 18:50 LIPZ 011850Z 07004KT 9999 BKN070 18/16 Q1006 NOSIG
 
LHSM - Balaton, Hungary
Oddaljenost od postaje: ENE 177km
Podatki zajeti: 01/10/2020 20:45
Jasno
Jasno
 Veter iz smeri E
Veter: E 7 km/h
Temperatura: 13°C
Rosišče: 12°C
Vlažnost: 94%
Tlak: 1005 hPa
Stanje: Jasno
Vidljivost: večja od 10 km
2020/10/01 18:45 LHSM 011845Z AUTO 08004KT CAVOK 13/12 Q1005